createdAt,value
2022-08-04T00:00:58.480Z,21.96
2022-08-04T00:03:30.570Z,21.60
2022-08-04T00:06:04.207Z,22.04
2022-08-04T00:08:39.970Z,22.56
2022-08-04T00:11:11.967Z,22.90
2022-08-04T00:13:54.312Z,22.69
2022-08-04T00:16:33.152Z,22.58
2022-08-04T00:19:13.084Z,22.60
2022-08-04T00:21:47.626Z,22.77
2022-08-04T00:24:17.442Z,22.66
2022-08-04T00:26:46.862Z,22.77
2022-08-04T00:29:15.553Z,22.67
2022-08-04T00:31:56.208Z,22.81
2022-08-04T00:34:29.120Z,22.83
2022-08-04T00:36:59.616Z,22.84
2022-08-04T00:39:28.729Z,22.89
2022-08-04T00:42:18.000Z,22.77
2022-08-04T00:45:01.741Z,22.82
2022-08-04T00:47:46.003Z,22.13
2022-08-04T00:50:24.597Z,21.97
2022-08-04T00:53:07.704Z,22.16
2022-08-04T00:55:55.882Z,22.30
2022-08-04T00:58:44.090Z,21.58
2022-08-04T01:01:30.357Z,21.95
2022-08-04T01:04:05.031Z,22.39
2022-08-04T01:06:56.022Z,22.38
2022-08-04T01:09:42.049Z,22.47
2022-08-04T01:12:29.433Z,22.60
2022-08-04T01:15:07.818Z,22.56
2022-08-04T01:17:49.381Z,21.85
2022-08-04T01:20:26.035Z,21.58
2022-08-04T01:23:35.098Z,21.82
2022-08-04T01:26:57.843Z,21.85
2022-08-04T01:29:43.784Z,21.82
2022-08-04T01:32:26.058Z,22.00
2022-08-04T01:35:01.497Z,22.32
2022-08-04T01:37:45.434Z,22.04
2022-08-04T01:40:16.574Z,21.46
2022-08-04T01:42:46.732Z,21.68
2022-08-04T01:45:17.110Z,22.06
2022-08-04T01:47:52.656Z,22.22
2022-08-04T01:50:22.237Z,22.32
2022-08-04T01:52:53.736Z,22.40
2022-08-04T01:55:22.645Z,22.22
2022-08-04T01:57:53.076Z,22.07
2022-08-04T02:00:27.525Z,21.70
2022-08-04T02:02:57.086Z,21.49
2022-08-04T02:06:03.746Z,21.62
2022-08-04T02:08:23.263Z,21.80
2022-08-04T02:11:05.378Z,21.95
2022-08-04T02:13:40.177Z,22.02
2022-08-04T02:16:17.807Z,21.94
2022-08-04T02:18:59.169Z,22.19
2022-08-04T02:21:42.733Z,22.00
2022-08-04T02:24:18.578Z,22.19
2022-08-04T02:26:51.620Z,22.24
2022-08-04T02:29:22.414Z,22.27
2022-08-04T02:32:03.025Z,22.24
2022-08-04T02:34:39.941Z,22.06
2022-08-04T02:37:11.922Z,20.94
2022-08-04T02:39:48.138Z,20.95
2022-08-04T02:42:18.717Z,21.50
2022-08-04T02:44:51.478Z,21.78
2022-08-04T02:47:23.482Z,21.88
2022-08-04T02:50:28.333Z,21.97
2022-08-04T02:52:59.602Z,21.99
2022-08-04T02:55:30.505Z,21.93
2022-08-04T02:58:00.184Z,21.50
2022-08-04T03:00:29.290Z,21.77
2022-08-04T03:03:14.171Z,21.86
2022-08-04T03:06:10.346Z,21.96
2022-08-04T03:08:59.608Z,21.59
2022-08-04T03:12:02.326Z,21.07
2022-08-04T03:14:57.389Z,21.44
2022-08-04T03:18:03.183Z,21.69
2022-08-04T03:21:22.681Z,21.84
2022-08-04T03:24:39.287Z,21.79
2022-08-04T03:27:13.905Z,21.69
2022-08-04T03:30:05.830Z,21.35
2022-08-04T03:33:06.631Z,21.21
2022-08-04T03:36:06.776Z,21.77
2022-08-04T03:39:05.083Z,21.67
2022-08-04T03:42:06.472Z,21.33
2022-08-04T03:45:23.537Z,21.52
2022-08-04T03:48:25.543Z,21.75
2022-08-04T03:51:41.245Z,21.90
2022-08-04T03:54:39.909Z,21.92
2022-08-04T03:57:31.985Z,21.98
2022-08-04T04:00:09.814Z,22.05
2022-08-04T04:03:09.895Z,22.21
2022-08-04T04:06:05.200Z,22.51
2022-08-04T04:08:49.774Z,22.36
2022-08-04T04:11:58.042Z,22.57
2022-08-04T04:15:03.525Z,22.75
2022-08-04T04:18:11.884Z,22.50
2022-08-04T04:20:59.214Z,22.57
2022-08-04T04:23:52.279Z,22.62
2022-08-04T04:26:39.028Z,22.20
2022-08-04T04:29:29.745Z,22.68
2022-08-04T04:32:23.026Z,22.55
2022-08-04T04:35:12.450Z,22.63
2022-08-04T04:38:01.640Z,22.73
2022-08-04T04:40:49.740Z,22.79
2022-08-04T04:43:50.936Z,22.83
2022-08-04T04:46:31.628Z,22.87
2022-08-04T04:49:10.053Z,22.98
2022-08-04T04:51:45.917Z,23.05
2022-08-04T04:54:26.688Z,22.92
2022-08-04T04:57:04.651Z,23.03
2022-08-04T04:59:36.300Z,22.69
2022-08-04T05:02:34.273Z,22.84
2022-08-04T05:05:22.685Z,23.06
2022-08-04T05:08:45.337Z,23.18
2022-08-04T05:11:47.357Z,22.95
2022-08-04T05:14:37.201Z,23.28
2022-08-04T05:17:16.993Z,23.37
2022-08-04T05:19:55.115Z,23.26
2022-08-04T05:22:30.213Z,23.43
2022-08-04T05:25:06.159Z,23.34
2022-08-04T05:27:41.616Z,23.35
2022-08-04T05:30:11.998Z,23.36
2022-08-04T05:32:48.355Z,22.95
2022-08-04T05:35:37.354Z,22.84
2022-08-04T05:38:18.516Z,22.62
2022-08-04T05:40:47.594Z,22.12
2022-08-04T05:43:17.337Z,22.75
2022-08-04T05:45:48.437Z,23.25
2022-08-04T05:48:17.184Z,23.55
2022-08-04T05:50:47.445Z,23.82
2022-08-04T05:53:19.244Z,24.21
2022-08-04T05:55:59.358Z,24.21
2022-08-04T05:58:30.949Z,24.63
2022-08-04T06:01:00.960Z,24.44
2022-08-04T06:03:31.563Z,24.09
2022-08-04T06:06:01.387Z,24.23
2022-08-04T06:08:32.086Z,24.22
2022-08-04T06:11:05.169Z,24.91
2022-08-04T06:13:47.623Z,25.55
2022-08-04T06:16:29.606Z,25.21
2022-08-04T06:20:00.175Z,25.02
2022-08-04T06:21:55.208Z,25.17
2022-08-04T06:24:27.964Z,25.14
2022-08-04T06:26:58.053Z,24.67
2022-08-04T06:29:32.685Z,25.45
2022-08-04T06:32:30.603Z,25.22
2022-08-04T06:35:04.845Z,25.33
2022-08-04T06:37:43.386Z,25.88
2022-08-04T06:40:30.486Z,26.40
2022-08-04T06:43:02.451Z,26.09
2022-08-04T06:45:34.552Z,26.16
2022-08-04T06:48:04.133Z,26.70
2022-08-04T06:51:25.534Z,26.19
2022-08-04T06:53:22.511Z,27.09
2022-08-04T06:55:53.232Z,27.01
2022-08-04T06:58:23.351Z,27.76
2022-08-04T07:00:53.729Z,28.13
2022-08-04T07:03:23.194Z,28.00
2022-08-04T07:05:53.676Z,28.57
2022-08-04T07:08:23.068Z,28.78
2022-08-04T07:10:54.550Z,28.49
2022-08-04T07:13:24.613Z,28.23
2022-08-04T07:15:54.172Z,28.82
2022-08-04T07:18:22.668Z,29.42
2022-08-04T07:20:51.851Z,29.29
2022-08-04T07:23:25.615Z,30.12
2022-08-04T07:26:00.279Z,29.40
2022-08-04T07:28:41.093Z,29.37
2022-08-04T07:31:32.985Z,29.93
2022-08-04T07:34:20.535Z,30.02
2022-08-04T07:36:52.937Z,30.09
2022-08-04T07:39:28.395Z,30.44
2022-08-04T07:42:01.610Z,30.56
2022-08-04T07:44:31.313Z,31.24
2022-08-04T07:47:00.203Z,31.19
2022-08-04T07:49:52.230Z,31.51
2022-08-04T07:52:17.857Z,31.16
2022-08-04T07:54:46.900Z,30.77
2022-08-04T07:57:40.646Z,30.41
2022-08-04T08:00:09.010Z,31.58
2022-08-04T08:02:39.525Z,32.45
2022-08-04T08:05:10.755Z,32.29
2022-08-04T08:07:51.009Z,32.24
2022-08-04T08:10:23.398Z,32.15
2022-08-04T08:12:54.325Z,32.51
2022-08-04T08:15:23.794Z,33.19
2022-08-04T08:18:00.050Z,33.09
2022-08-04T08:20:33.039Z,32.87
2022-08-04T08:23:03.171Z,31.59
2022-08-04T08:25:33.003Z,31.66
2022-08-04T08:28:05.435Z,32.25
2022-08-04T08:30:34.835Z,32.36
2022-08-04T08:33:07.334Z,32.48
2022-08-04T08:35:54.815Z,31.57
2022-08-04T08:38:39.362Z,31.50
2022-08-04T08:41:37.362Z,32.75
2022-08-04T08:44:48.836Z,33.67
2022-08-04T08:47:29.684Z,34.06
2022-08-04T08:50:56.997Z,33.73
2022-08-04T08:53:39.486Z,33.84
2022-08-04T08:56:19.796Z,35.17
2022-08-04T08:59:17.928Z,36.16
2022-08-04T09:02:08.359Z,35.51
2022-08-04T09:05:15.952Z,34.97
2022-08-04T09:07:59.574Z,35.84
2022-08-04T09:10:35.387Z,34.89
2022-08-04T09:13:07.535Z,36.01
2022-08-04T09:15:41.193Z,36.55
2022-08-04T09:18:19.591Z,37.25
2022-08-04T09:20:52.971Z,37.42
2022-08-04T09:23:29.777Z,37.38
2022-08-04T09:26:07.555Z,37.01
2022-08-04T09:28:54.704Z,36.18
2022-08-04T09:31:51.582Z,36.07
2022-08-04T09:34:36.665Z,35.54
2022-08-04T09:37:14.355Z,35.82
2022-08-04T09:39:52.079Z,35.90
2022-08-04T09:42:30.943Z,36.06
2022-08-04T09:45:06.765Z,36.57
2022-08-04T09:47:41.099Z,37.14
2022-08-04T09:50:35.123Z,36.37
2022-08-04T09:53:14.788Z,35.94
2022-08-04T09:55:55.815Z,37.16
2022-08-04T09:58:40.562Z,37.26
2022-08-04T10:01:11.716Z,37.21
2022-08-04T10:03:45.110Z,37.00
2022-08-04T10:06:37.843Z,37.17
2022-08-04T10:09:20.418Z,37.79
2022-08-04T10:12:04.812Z,36.72
2022-08-04T10:14:41.616Z,35.84
2022-08-04T10:17:24.702Z,36.15
2022-08-04T10:20:03.269Z,35.45
2022-08-04T10:23:02.160Z,35.51
2022-08-04T10:26:05.452Z,36.33
2022-08-04T10:28:32.504Z,35.37
2022-08-04T10:31:04.674Z,35.09
2022-08-04T10:33:40.094Z,34.86
2022-08-04T10:36:12.143Z,34.04
2022-08-04T10:38:51.628Z,35.58
2022-08-04T10:41:27.152Z,35.76
2022-08-04T10:44:14.964Z,33.93
2022-08-04T10:46:50.130Z,35.99
2022-08-04T10:49:24.864Z,36.07
2022-08-04T10:52:00.775Z,35.34
2022-08-04T10:54:44.033Z,35.11
2022-08-04T10:57:16.878Z,35.25
2022-08-04T10:59:58.035Z,35.19
2022-08-04T11:02:39.234Z,36.11
2022-08-04T11:05:19.410Z,35.47
2022-08-04T11:07:52.798Z,35.44
2022-08-04T11:10:25.436Z,35.17
2022-08-04T11:13:02.012Z,35.60
2022-08-04T11:15:38.139Z,35.70
2022-08-04T11:18:16.225Z,36.57
2022-08-04T11:20:53.833Z,37.88
2022-08-04T11:23:28.205Z,38.69
2022-08-04T11:26:05.098Z,38.40
2022-08-04T11:28:44.065Z,37.51
2022-08-04T11:31:20.149Z,37.94
2022-08-04T11:33:58.141Z,37.23
2022-08-04T11:36:36.050Z,37.98
2022-08-04T11:39:11.479Z,36.65
2022-08-04T11:41:48.972Z,34.53
2022-08-04T11:44:28.028Z,35.37
2022-08-04T11:47:00.779Z,35.44
2022-08-04T11:49:56.601Z,36.56
2022-08-04T11:52:26.219Z,35.89
2022-08-04T11:54:57.260Z,34.73
2022-08-04T11:57:35.761Z,34.26
2022-08-04T12:00:09.931Z,33.77
2022-08-04T12:03:00.809Z,33.25
2022-08-04T12:05:36.907Z,32.72
2022-08-04T12:08:22.175Z,32.82
2022-08-04T12:11:04.964Z,32.79
2022-08-04T12:13:43.926Z,32.74
2022-08-04T12:16:18.212Z,32.52
2022-08-04T12:18:57.417Z,32.87
2022-08-04T12:21:33.154Z,34.36
2022-08-04T12:24:06.629Z,35.84
2022-08-04T12:26:38.757Z,36.36
2022-08-04T12:29:11.645Z,37.42
2022-08-04T12:31:47.041Z,37.79
2022-08-04T12:34:19.017Z,37.22
2022-08-04T12:36:55.921Z,36.86
2022-08-04T12:39:27.199Z,35.65
2022-08-04T12:42:04.895Z,35.32
2022-08-04T12:44:38.283Z,34.92
2022-08-04T12:47:27.071Z,34.37
2022-08-04T12:50:02.965Z,33.40
2022-08-04T12:53:01.632Z,33.88
2022-08-04T12:55:30.117Z,33.73
2022-08-04T12:57:59.506Z,33.71
2022-08-04T13:00:40.243Z,33.83
2022-08-04T13:03:12.389Z,33.64
2022-08-04T13:05:42.495Z,34.40
2022-08-04T13:08:12.367Z,34.88
2022-08-04T13:10:42.637Z,35.90
2022-08-04T13:13:18.861Z,36.61
2022-08-04T13:15:59.435Z,36.12
2022-08-04T13:18:32.251Z,35.08
2022-08-04T13:21:21.118Z,34.28
2022-08-04T13:24:09.905Z,33.42
2022-08-04T13:26:55.357Z,32.60
2022-08-04T13:30:00.602Z,31.68
2022-08-04T13:32:22.479Z,32.43
2022-08-04T13:34:54.157Z,32.64
2022-08-04T13:37:26.942Z,32.43
2022-08-04T13:39:56.946Z,31.93
2022-08-04T13:42:28.085Z,32.38
2022-08-04T13:44:58.755Z,32.55
2022-08-04T13:47:31.679Z,31.87
2022-08-04T13:50:19.493Z,31.81
2022-08-04T13:52:48.781Z,32.12
2022-08-04T13:55:26.233Z,33.18
2022-08-04T13:58:03.207Z,33.53
2022-08-04T14:00:45.608Z,32.62
2022-08-04T14:03:24.868Z,32.88
2022-08-04T14:06:16.517Z,33.01
2022-08-04T14:08:51.371Z,32.82
2022-08-04T14:12:09.482Z,33.10
2022-08-04T14:14:18.365Z,33.61
2022-08-04T14:17:00.706Z,33.93
2022-08-04T14:19:35.969Z,33.16
2022-08-04T14:22:04.987Z,33.99
2022-08-04T14:24:33.418Z,34.08
2022-08-04T14:27:02.302Z,33.79
2022-08-04T14:29:42.036Z,34.04
2022-08-04T14:32:14.605Z,34.23
2022-08-04T14:34:46.341Z,33.97
2022-08-04T14:37:20.684Z,34.35
2022-08-04T14:40:18.268Z,34.72
2022-08-04T14:42:44.237Z,34.36
2022-08-04T14:45:13.353Z,34.72
2022-08-04T14:47:52.643Z,34.63
2022-08-04T14:50:35.576Z,34.21
2022-08-04T14:53:04.916Z,33.08
2022-08-04T14:55:33.411Z,32.86
2022-08-04T14:58:37.659Z,33.00
2022-08-04T15:00:51.243Z,32.78
2022-08-04T15:03:22.055Z,32.63
2022-08-04T15:05:55.081Z,33.18
2022-08-04T15:08:32.778Z,33.66
2022-08-04T15:11:03.412Z,33.08
2022-08-04T15:13:33.713Z,32.95
2022-08-04T15:16:07.882Z,32.78
2022-08-04T15:18:39.017Z,32.19
2022-08-04T15:21:09.682Z,32.67
2022-08-04T15:23:40.172Z,32.28
2022-08-04T15:26:13.240Z,32.04
2022-08-04T15:28:46.118Z,31.51
2022-08-04T15:32:05.774Z,31.67
2022-08-04T15:34:05.921Z,31.48
2022-08-04T15:36:43.606Z,31.37
2022-08-04T15:39:27.416Z,31.38
2022-08-04T15:42:12.960Z,30.97
2022-08-04T15:45:14.130Z,30.99
2022-08-04T15:47:42.790Z,30.80
2022-08-04T15:50:28.444Z,31.16
2022-08-04T15:53:12.676Z,31.48
2022-08-04T15:55:44.076Z,31.35
2022-08-04T15:58:14.010Z,31.46
2022-08-04T16:01:15.635Z,31.38
2022-08-04T16:03:57.949Z,31.43
2022-08-04T16:06:44.930Z,31.46
2022-08-04T16:09:25.131Z,30.77
2022-08-04T16:12:55.146Z,30.16
2022-08-04T16:15:47.103Z,29.73
2022-08-04T16:18:26.421Z,29.56
2022-08-04T16:20:58.123Z,29.53
2022-08-04T16:24:07.642Z,28.83
2022-08-04T16:26:56.169Z,29.45
2022-08-04T16:29:31.034Z,29.31
2022-08-04T16:32:10.751Z,29.01
2022-08-04T16:34:54.006Z,29.15
2022-08-04T16:37:30.733Z,28.81
2022-08-04T16:40:34.131Z,28.79
2022-08-04T16:43:08.068Z,28.58
2022-08-04T16:45:47.985Z,28.69
2022-08-04T16:48:17.220Z,28.18
2022-08-04T16:51:05.841Z,28.04
2022-08-04T16:53:53.578Z,27.74
2022-08-04T16:56:34.571Z,27.34
2022-08-04T16:59:11.811Z,27.58
2022-08-04T17:01:47.259Z,27.42
2022-08-04T17:04:16.234Z,27.47
2022-08-04T17:06:47.214Z,27.36
2022-08-04T17:09:17.225Z,27.21
2022-08-04T17:11:47.773Z,27.20
2022-08-04T17:14:23.263Z,27.07
2022-08-04T17:16:52.502Z,27.08
2022-08-04T17:19:26.290Z,27.05
2022-08-04T17:22:04.127Z,27.20
2022-08-04T17:24:34.694Z,27.19
2022-08-04T17:27:04.207Z,26.90
2022-08-04T17:29:53.627Z,26.83
2022-08-04T17:32:23.897Z,26.58
2022-08-04T17:34:54.581Z,26.63
2022-08-04T17:37:52.989Z,26.69
2022-08-04T17:40:22.436Z,26.70
2022-08-04T17:44:01.508Z,26.63
2022-08-04T17:46:28.576Z,26.74
2022-08-04T17:49:07.609Z,26.71
2022-08-04T17:52:06.373Z,26.46
2022-08-04T17:54:37.223Z,26.45
2022-08-04T18:00:05.453Z,26.63
2022-08-04T18:02:36.763Z,26.52
2022-08-04T18:08:39.190Z,26.59
2022-08-04T18:10:55.165Z,26.68
2022-08-04T18:13:26.567Z,26.51
2022-08-04T18:16:05.382Z,26.83
2022-08-04T18:18:35.412Z,26.92
2022-08-04T18:21:07.210Z,26.97
2022-08-04T18:23:35.612Z,26.91
2022-08-04T18:26:23.728Z,27.24
2022-08-04T18:28:52.534Z,27.21
2022-08-04T18:31:21.395Z,27.14
2022-08-04T18:33:59.030Z,26.97
2022-08-04T18:36:33.751Z,27.02
2022-08-04T18:39:17.466Z,27.06
2022-08-04T18:42:05.993Z,27.06
2022-08-04T18:44:49.360Z,26.85
2022-08-04T18:47:23.054Z,27.12
2022-08-04T18:50:59.272Z,26.93
2022-08-04T18:52:42.000Z,26.86
2022-08-04T18:55:55.631Z,27.06
2022-08-04T18:58:06.079Z,27.05
2022-08-04T19:00:36.970Z,27.05
2022-08-04T19:03:16.230Z,26.97
2022-08-04T19:05:48.504Z,26.68
2022-08-04T19:08:34.793Z,26.31
2022-08-04T19:11:37.183Z,26.20
2022-08-04T19:13:58.600Z,26.17
2022-08-04T19:16:28.674Z,26.35
2022-08-04T19:18:57.640Z,26.53
2022-08-04T19:21:59.223Z,26.82
2022-08-04T19:24:31.416Z,26.87
2022-08-04T19:27:07.368Z,26.84
2022-08-04T19:29:42.884Z,26.73
2022-08-04T19:32:15.113Z,26.37
2022-08-04T19:34:47.086Z,26.60
2022-08-04T19:37:57.032Z,26.51
2022-08-04T19:40:09.470Z,26.42
2022-08-04T19:42:38.757Z,26.46
2022-08-04T19:45:09.489Z,26.54
2022-08-04T19:48:15.847Z,26.53
2022-08-04T19:50:32.689Z,26.38
2022-08-04T19:53:04.198Z,26.43
2022-08-04T19:55:49.892Z,26.43
2022-08-04T19:58:21.698Z,26.43
2022-08-04T20:00:55.036Z,26.40
2022-08-04T20:04:09.538Z,26.37
2022-08-04T20:06:12.451Z,26.28
2022-08-04T20:08:48.668Z,26.34
2022-08-04T20:11:18.502Z,26.20
2022-08-04T20:13:54.669Z,26.27
2022-08-04T20:16:29.930Z,25.88
2022-08-04T20:19:03.652Z,25.82
2022-08-04T20:21:53.917Z,25.85
2022-08-04T20:24:37.649Z,25.68
2022-08-04T20:27:14.768Z,25.66
2022-08-04T20:32:32.672Z,25.68
2022-08-04T20:35:01.198Z,25.67
2022-08-04T20:38:00.057Z,25.60
2022-08-04T20:40:19.830Z,25.49
2022-08-04T20:42:48.317Z,25.16
2022-08-04T20:45:16.898Z,25.53
2022-08-04T20:47:53.182Z,25.44
2022-08-04T20:50:29.730Z,25.40
2022-08-04T20:52:59.690Z,25.35
2022-08-04T20:55:30.059Z,25.33
2022-08-04T21:00:47.165Z,25.26
2022-08-04T21:03:49.610Z,25.21
2022-08-04T21:06:10.785Z,25.23
2022-08-04T21:08:39.307Z,25.21
2022-08-04T21:11:09.805Z,25.11
2022-08-04T21:13:52.377Z,25.08
2022-08-04T21:16:55.072Z,25.02
2022-08-04T21:19:13.025Z,25.09
2022-08-04T21:21:42.496Z,25.05
2022-08-04T21:24:13.498Z,25.11
2022-08-04T21:26:46.357Z,25.10
2022-08-04T21:29:15.372Z,24.77
2022-08-04T21:31:50.933Z,24.70
2022-08-04T21:34:36.747Z,24.61
2022-08-04T21:37:09.236Z,24.50
2022-08-04T21:39:50.224Z,23.93
2022-08-04T21:42:30.591Z,23.34
2022-08-04T21:44:59.490Z,24.18
2022-08-04T21:47:45.770Z,24.20
2022-08-04T21:50:19.891Z,24.27
2022-08-04T21:52:49.315Z,23.27
2022-08-04T21:55:19.005Z,24.16
2022-08-04T21:57:49.584Z,24.00
2022-08-04T22:00:20.251Z,24.07
2022-08-04T22:02:53.261Z,24.04
2022-08-04T22:05:22.425Z,23.51
2022-08-04T22:10:39.420Z,23.75
2022-08-04T22:13:22.668Z,23.74
2022-08-04T22:16:03.759Z,23.25
2022-08-04T22:18:36.844Z,23.07
2022-08-04T22:21:11.847Z,22.94
2022-08-04T22:23:46.922Z,23.28
2022-08-04T22:26:20.210Z,23.50
2022-08-04T22:28:58.094Z,23.43
2022-08-04T22:31:26.812Z,23.51
2022-08-04T22:34:15.090Z,23.40
2022-08-04T22:36:47.771Z,23.39
2022-08-04T22:39:16.567Z,23.50
2022-08-04T22:41:48.972Z,23.54
2022-08-04T22:44:33.712Z,23.04
2022-08-04T22:47:02.416Z,23.23
2022-08-04T22:49:32.585Z,23.34
2022-08-04T22:52:02.927Z,23.39
2022-08-04T22:54:39.471Z,23.32
2022-08-04T22:57:09.226Z,23.10
2022-08-04T22:59:43.026Z,23.15
2022-08-04T23:02:11.786Z,22.90
2022-08-04T23:04:43.117Z,22.65
2022-08-04T23:07:12.804Z,22.68
2022-08-04T23:09:50.467Z,22.92
2022-08-04T23:12:26.297Z,22.99
2022-08-04T23:14:57.073Z,23.10
2022-08-04T23:17:27.824Z,23.12
2022-08-04T23:19:58.234Z,22.67
2022-08-04T23:22:37.164Z,22.73
2022-08-04T23:25:15.510Z,22.37
2022-08-04T23:27:50.966Z,22.75
2022-08-04T23:30:29.427Z,22.90
2022-08-04T23:32:58.545Z,23.03
2022-08-04T23:35:27.174Z,22.39
2022-08-04T23:37:57.174Z,21.90
2022-08-04T23:40:32.696Z,21.91
2022-08-04T23:43:16.924Z,21.67
2022-08-04T23:46:04.197Z,22.51
2022-08-04T23:48:36.302Z,22.48
2022-08-04T23:51:14.554Z,22.38
2022-08-04T23:54:01.983Z,22.53
2022-08-04T23:56:33.214Z,22.21
2022-08-04T23:59:04.417Z,22.47
